Tropical Cyclones
[Index]
Main Index Home Page Stock Weather Photos Extreme Storms Discussion Storm News and Storm Chasing Reports Tropical Cyclones / Hurricanes / Typhoons Weather Data and Links Wild Fires / Bushfires Weather Observation Techniques Weather Picture Catalogue Tornado Pictures and Reports Stock Video Footage and DVDs for sale
Season 2003-2004 Tropical Cyclone DEBBIE Track Map
Season 2003-2004 Summaries: [BoM-AU] [JTWC-AU] [JTWC-SIO] [JTWC-SPAC] [JTWC-SH]
<<- Previous TC | JTWC 2003-2004 Season | Next TC ->>

click for intensity scale information  Lat/long Grid: Show Hide

 Date Labels: Show Hide

Joint Typhoon Warning Centre Cyclone Data

Name: DEBBIE

17 Dec 2003 00:00 UTC to 22 Dec 2003 06:00 UTC

    date/time    lat    long     hPa   cat  kts
2003-12-17 00    9.3   137.4    1004         20          
2003-12-17 06    9.3   136.6    1002         25          
2003-12-17 12    9.3   135.9    1002         25          
2003-12-17 18    9.4   135.5    1002         25          
2003-12-18 00    9.5   135.3    1002         25          
2003-12-18 06    9.7   135.3    1002         25          
2003-12-18 12    9.8   135.3    1000         30          
2003-12-18 18    9.9   135.2     997         35          
2003-12-19 00    9.9   135.0     994    1    40          
2003-12-19 06    9.9   134.7     991    1    45          
2003-12-19 12   10.0   134.3     991    1    45          
2003-12-19 18   10.3   134.0     992    1    50          
2003-12-20 00   10.8   133.9     980    2    60          
2003-12-20 06   11.3   133.8     976    2    65          
2003-12-20 12   11.8   133.6     976    2    65          
2003-12-20 18   12.4   133.5     984    2    55          
2003-12-21 00   13.1   133.3     991    1    45          
2003-12-21 06   13.6   133.1     997         35          
2003-12-21 12   14.1   132.9    1002         25          
2003-12-21 18   14.4   132.5    1002         25          
2003-12-22 00   14.7   132.1    1002         25          
2003-12-22 06   15.0   131.6    1002         25          
Winds are 1-min average.

Tropical cyclone tracks developed by Michael Bath using data from the Joint Typhoon Warning Centre Best Tracks and Google Maps.


[Australian Severe Weather index] [Copyright Notice] [Email Contacts] [Search This Site] [Privacy Policy]
Document: tropical_cyclone_debbie.htm Updated: 28 June 2017